sensor_id;sensor_type;location;lat;lon;timestamp;P1;durP1;ratioP1;P2;durP2;ratioP2
33814;SDS011;20121;51.910;8.406;2022-10-16T00:01:33;2.27;;;1.90;;
33814;SDS011;20121;51.910;8.406;2022-10-16T00:04:00;1.98;;;1.77;;
33814;SDS011;20121;51.910;8.406;2022-10-16T00:06:27;2.45;;;2.15;;
33814;SDS011;20121;51.910;8.406;2022-10-16T00:08:54;7.25;;;1.90;;
33814;SDS011;20121;51.910;8.406;2022-10-16T00:11:21;1.42;;;1.33;;
33814;SDS011;20121;51.910;8.406;2022-10-16T00:13:49;2.53;;;1.67;;
33814;SDS011;20121;51.910;8.406;2022-10-16T00:16:17;2.28;;;1.95;;
33814;SDS011;20121;51.910;8.406;2022-10-16T00:18:43;2.30;;;2.10;;
33814;SDS011;20121;51.910;8.406;2022-10-16T00:21:13;3.33;;;1.88;;
33814;SDS011;20121;51.910;8.406;2022-10-16T00:23:40;4.72;;;1.95;;
33814;SDS011;20121;51.910;8.406;2022-10-16T00:26:07;1.50;;;1.40;;
33814;SDS011;20121;51.910;8.406;2022-10-16T00:28:36;2.15;;;1.80;;
33814;SDS011;20121;51.910;8.406;2022-10-16T00:31:09;2.95;;;2.03;;
33814;SDS011;20121;51.910;8.406;2022-10-16T00:33:36;1.48;;;1.38;;
33814;SDS011;20121;51.910;8.406;2022-10-16T00:36:04;2.03;;;1.83;;
33814;SDS011;20121;51.910;8.406;2022-10-16T00:38:31;2.65;;;2.45;;
33814;SDS011;20121;51.910;8.406;2022-10-16T00:40:57;2.00;;;1.80;;
33814;SDS011;20121;51.910;8.406;2022-10-16T00:46:00;2.45;;;1.40;;
33814;SDS011;20121;51.910;8.406;2022-10-16T00:48:27;2.08;;;1.85;;
33814;SDS011;20121;51.910;8.406;2022-10-16T00:50:53;5.68;;;2.10;;
33814;SDS011;20121;51.910;8.406;2022-10-16T00:53:19;3.03;;;1.73;;
33814;SDS011;20121;51.910;8.406;2022-10-16T00:55:46;3.38;;;2.55;;
33814;SDS011;20121;51.910;8.406;2022-10-16T00:58:12;1.57;;;1.30;;
33814;SDS011;20121;51.910;8.406;2022-10-16T01:00:37;2.40;;;2.20;;
33814;SDS011;20121;51.910;8.406;2022-10-16T01:03:21;2.15;;;1.55;;
33814;SDS011;20121;51.910;8.406;2022-10-16T01:06:19;3.08;;;2.40;;
33814;SDS011;20121;51.910;8.406;2022-10-16T01:11:44;2.22;;;1.73;;
33814;SDS011;20121;51.910;8.406;2022-10-16T01:17:39;3.38;;;2.10;;
33814;SDS011;20121;51.910;8.406;2022-10-16T01:20:10;2.30;;;2.00;;
33814;SDS011;20121;51.910;8.406;2022-10-16T01:22:48;4.30;;;2.08;;
33814;SDS011;20121;51.910;8.406;2022-10-16T01:28:09;2.10;;;1.70;;
33814;SDS011;20121;51.910;8.406;2022-10-16T01:30:38;4.25;;;2.60;;
33814;SDS011;20121;51.910;8.406;2022-10-16T01:33:13;1.48;;;1.38;;
33814;SDS011;20121;51.910;8.406;2022-10-16T01:35:45;2.53;;;2.33;;
33814;SDS011;20121;51.910;8.406;2022-10-16T01:38:25;1.88;;;1.45;;
33814;SDS011;20121;51.910;8.406;2022-10-16T01:41:00;1.92;;;1.80;;
33814;SDS011;20121;51.910;8.406;2022-10-16T01:43:33;2.38;;;1.90;;
33814;SDS011;20121;51.910;8.406;2022-10-16T01:46:03;1.48;;;1.35;;
33814;SDS011;20121;51.910;8.406;2022-10-16T01:48:30;1.75;;;1.65;;
33814;SDS011;20121;51.910;8.406;2022-10-16T01:51:04;3.47;;;1.08;;
33814;SDS011;20121;51.910;8.406;2022-10-16T01:53:33;4.50;;;1.83;;
33814;SDS011;20121;51.910;8.406;2022-10-16T01:55:59;4.30;;;2.03;;
33814;SDS011;20121;51.910;8.406;2022-10-16T01:58:28;1.50;;;1.40;;
33814;SDS011;20121;51.910;8.406;2022-10-16T02:00:59;1.92;;;1.58;;
33814;SDS011;20121;51.910;8.406;2022-10-16T02:03:27;1.45;;;1.35;;
33814;SDS011;20121;51.910;8.406;2022-10-16T02:05:54;3.25;;;2.35;;
33814;SDS011;20121;51.910;8.406;2022-10-16T02:08:22;1.83;;;1.73;;
33814;SDS011;20121;51.910;8.406;2022-10-16T02:10:50;3.97;;;1.73;;
33814;SDS011;20121;51.910;8.406;2022-10-16T02:13:17;3.10;;;2.50;;
33814;SDS011;20121;51.910;8.406;2022-10-16T02:15:51;2.38;;;1.50;;
33814;SDS011;20121;51.910;8.406;2022-10-16T02:18:17;2.97;;;2.27;;
33814;SDS011;20121;51.910;8.406;2022-10-16T02:20:46;1.63;;;1.47;;
33814;SDS011;20121;51.910;8.406;2022-10-16T02:23:19;4.50;;;3.17;;
33814;SDS011;20121;51.910;8.406;2022-10-16T02:25:49;3.65;;;1.75;;
33814;SDS011;20121;51.910;8.406;2022-10-16T02:28:19;3.15;;;2.78;;
33814;SDS011;20121;51.910;8.406;2022-10-16T02:30:54;4.18;;;2.15;;
33814;SDS011;20121;51.910;8.406;2022-10-16T02:33:24;2.20;;;1.70;;
33814;SDS011;20121;51.910;8.406;2022-10-16T02:35:52;2.10;;;2.00;;
33814;SDS011;20121;51.910;8.406;2022-10-16T02:38:20;1.75;;;1.33;;
33814;SDS011;20121;51.910;8.406;2022-10-16T02:40:46;1.30;;;1.20;;
33814;SDS011;20121;51.910;8.406;2022-10-16T02:43:13;1.77;;;1.67;;
33814;SDS011;20121;51.910;8.406;2022-10-16T02:45:38;1.87;;;1.77;;
33814;SDS011;20121;51.910;8.406;2022-10-16T02:48:04;2.20;;;1.93;;
33814;SDS011;20121;51.910;8.406;2022-10-16T02:50:30;2.25;;;1.52;;
33814;SDS011;20121;51.910;8.406;2022-10-16T02:52:56;2.80;;;2.60;;
33814;SDS011;20121;51.910;8.406;2022-10-16T02:55:22;1.50;;;1.37;;
33814;SDS011;20121;51.910;8.406;2022-10-16T02:57:47;2.23;;;1.60;;
33814;SDS011;20121;51.910;8.406;2022-10-16T03:00:14;1.43;;;1.27;;
33814;SDS011;20121;51.910;8.406;2022-10-16T03:02:40;1.77;;;1.45;;
33814;SDS011;20121;51.910;8.406;2022-10-16T03:05:06;3.53;;;2.70;;
33814;SDS011;20121;51.910;8.406;2022-10-16T03:07:32;1.50;;;1.40;;
33814;SDS011;20121;51.910;8.406;2022-10-16T03:09:58;2.13;;;2.03;;
33814;SDS011;20121;51.910;8.406;2022-10-16T03:12:25;2.25;;;1.80;;
33814;SDS011;20121;51.910;8.406;2022-10-16T03:14:51;2.03;;;1.92;;
33814;SDS011;20121;51.910;8.406;2022-10-16T03:17:17;3.00;;;1.63;;
33814;SDS011;20121;51.910;8.406;2022-10-16T03:19:43;1.27;;;1.17;;
33814;SDS011;20121;51.910;8.406;2022-10-16T03:22:09;1.73;;;1.53;;
33814;SDS011;20121;51.910;8.406;2022-10-16T03:24:34;1.57;;;1.47;;
33814;SDS011;20121;51.910;8.406;2022-10-16T03:27:00;1.60;;;1.50;;
33814;SDS011;20121;51.910;8.406;2022-10-16T03:29:26;1.40;;;1.30;;
33814;SDS011;20121;51.910;8.406;2022-10-16T03:31:52;5.38;;;3.15;;
33814;SDS011;20121;51.910;8.406;2022-10-16T03:34:18;5.10;;;2.10;;
33814;SDS011;20121;51.910;8.406;2022-10-16T03:36:43;2.03;;;1.77;;
33814;SDS011;20121;51.910;8.406;2022-10-16T03:39:09;3.23;;;1.80;;
33814;SDS011;20121;51.910;8.406;2022-10-16T03:41:35;1.80;;;1.30;;
33814;SDS011;20121;51.910;8.406;2022-10-16T03:44:00;1.67;;;1.47;;
33814;SDS011;20121;51.910;8.406;2022-10-16T03:46:26;4.30;;;1.60;;
33814;SDS011;20121;51.910;8.406;2022-10-16T03:48:52;1.37;;;1.13;;
33814;SDS011;20121;51.910;8.406;2022-10-16T03:51:17;1.43;;;1.33;;
33814;SDS011;20121;51.910;8.406;2022-10-16T03:53:43;1.47;;;1.37;;
33814;SDS011;20121;51.910;8.406;2022-10-16T03:56:08;2.80;;;1.47;;
33814;SDS011;20121;51.910;8.406;2022-10-16T03:58:34;4.70;;;2.70;;
33814;SDS011;20121;51.910;8.406;2022-10-16T04:01:00;1.23;;;1.10;;
33814;SDS011;20121;51.910;8.406;2022-10-16T04:03:25;1.20;;;1.10;;
33814;SDS011;20121;51.910;8.406;2022-10-16T04:05:51;1.50;;;1.40;;
33814;SDS011;20121;51.910;8.406;2022-10-16T04:08:17;1.50;;;1.27;;
33814;SDS011;20121;51.910;8.406;2022-10-16T04:10:43;1.40;;;1.30;;
33814;SDS011;20121;51.910;8.406;2022-10-16T04:13:09;1.93;;;1.53;;
33814;SDS011;20121;51.910;8.406;2022-10-16T04:15:35;1.80;;;1.48;;
33814;SDS011;20121;51.910;8.406;2022-10-16T04:18:00;1.70;;;1.40;;
33814;SDS011;20121;51.910;8.406;2022-10-16T04:20:26;4.60;;;1.20;;
33814;SDS011;20121;51.910;8.406;2022-10-16T04:22:52;1.90;;;1.55;;
33814;SDS011;20121;51.910;8.406;2022-10-16T04:25:18;1.10;;;1.00;;
33814;SDS011;20121;51.910;8.406;2022-10-16T04:27:43;1.90;;;1.57;;
33814;SDS011;20121;51.910;8.406;2022-10-16T04:30:09;2.13;;;1.13;;
33814;SDS011;20121;51.910;8.406;2022-10-16T04:32:35;2.45;;;2.10;;
33814;SDS011;20121;51.910;8.406;2022-10-16T04:35:01;1.73;;;1.40;;
33814;SDS011;20121;51.910;8.406;2022-10-16T04:37:27;1.25;;;0.98;;
33814;SDS011;20121;51.910;8.406;2022-10-16T04:39:53;1.67;;;1.40;;
33814;SDS011;20121;51.910;8.406;2022-10-16T04:42:19;1.10;;;1.00;;
33814;SDS011;20121;51.910;8.406;2022-10-16T04:44:45;1.20;;;1.10;;
33814;SDS011;20121;51.910;8.406;2022-10-16T04:47:11;2.00;;;1.40;;
33814;SDS011;20121;51.910;8.406;2022-10-16T04:49:37;3.67;;;1.90;;
33814;SDS011;20121;51.910;8.406;2022-10-16T04:52:02;1.13;;;1.00;;
33814;SDS011;20121;51.910;8.406;2022-10-16T04:54:28;2.00;;;1.43;;
33814;SDS011;20121;51.910;8.406;2022-10-16T04:56:54;1.20;;;1.10;;
33814;SDS011;20121;51.910;8.406;2022-10-16T04:59:20;2.93;;;1.60;;
33814;SDS011;20121;51.910;8.406;2022-10-16T05:01:46;2.38;;;1.17;;
33814;SDS011;20121;51.910;8.406;2022-10-16T05:04:12;0.80;;;0.80;;
33814;SDS011;20121;51.910;8.406;2022-10-16T05:06:38;4.60;;;1.67;;
33814;SDS011;20121;51.910;8.406;2022-10-16T05:09:04;1.63;;;1.10;;
33814;SDS011;20121;51.910;8.406;2022-10-16T05:11:30;2.00;;;1.73;;
33814;SDS011;20121;51.910;8.406;2022-10-16T05:13:56;1.30;;;1.20;;
33814;SDS011;20121;51.910;8.406;2022-10-16T05:16:22;1.00;;;1.00;;
33814;SDS011;20121;51.910;8.406;2022-10-16T05:18:47;1.20;;;1.10;;
33814;SDS011;20121;51.910;8.406;2022-10-16T05:21:13;0.83;;;0.77;;
33814;SDS011;20121;51.910;8.406;2022-10-16T05:23:39;1.37;;;1.17;;
33814;SDS011;20121;51.910;8.406;2022-10-16T05:26:04;1.40;;;1.20;;
33814;SDS011;20121;51.910;8.406;2022-10-16T05:28:30;1.20;;;1.00;;
33814;SDS011;20121;51.910;8.406;2022-10-16T05:30:56;1.20;;;1.10;;
33814;SDS011;20121;51.910;8.406;2022-10-16T05:33:24;1.48;;;1.13;;
33814;SDS011;20121;51.910;8.406;2022-10-16T05:35:50;1.25;;;1.10;;
33814;SDS011;20121;51.910;8.406;2022-10-16T05:38:17;1.30;;;1.10;;
33814;SDS011;20121;51.910;8.406;2022-10-16T05:40:43;1.55;;;1.45;;
33814;SDS011;20121;51.910;8.406;2022-10-16T05:43:15;1.40;;;1.30;;
33814;SDS011;20121;51.910;8.406;2022-10-16T05:45:41;2.13;;;0.93;;
33814;SDS011;20121;51.910;8.406;2022-10-16T05:48:06;1.83;;;1.27;;
33814;SDS011;20121;51.910;8.406;2022-10-16T05:50:32;1.33;;;1.23;;
33814;SDS011;20121;51.910;8.406;2022-10-16T05:52:58;1.70;;;1.30;;
33814;SDS011;20121;51.910;8.406;2022-10-16T05:55:23;1.57;;;0.90;;
33814;SDS011;20121;51.910;8.406;2022-10-16T05:57:49;0.90;;;0.83;;
33814;SDS011;20121;51.910;8.406;2022-10-16T06:00:14;1.00;;;1.00;;
33814;SDS011;20121;51.910;8.406;2022-10-16T06:02:40;1.83;;;1.53;;
33814;SDS011;20121;51.910;8.406;2022-10-16T06:05:06;0.97;;;0.90;;
33814;SDS011;20121;51.910;8.406;2022-10-16T06:07:33;1.40;;;0.87;;
33814;SDS011;20121;51.910;8.406;2022-10-16T06:10:00;2.00;;;1.45;;
33814;SDS011;20121;51.910;8.406;2022-10-16T06:12:26;1.77;;;1.33;;
33814;SDS011;20121;51.910;8.406;2022-10-16T06:14:52;2.00;;;1.27;;
33814;SDS011;20121;51.910;8.406;2022-10-16T06:17:18;1.60;;;1.10;;
33814;SDS011;20121;51.910;8.406;2022-10-16T06:19:43;1.50;;;1.40;;
33814;SDS011;20121;51.910;8.406;2022-10-16T06:22:09;0.83;;;0.83;;
33814;SDS011;20121;51.910;8.406;2022-10-16T06:24:34;0.97;;;0.93;;
33814;SDS011;20121;51.910;8.406;2022-10-16T06:27:00;1.20;;;1.00;;
33814;SDS011;20121;51.910;8.406;2022-10-16T06:29:26;2.77;;;1.20;;
33814;SDS011;20121;51.910;8.406;2022-10-16T06:31:51;1.07;;;0.97;;
33814;SDS011;20121;51.910;8.406;2022-10-16T06:34:18;1.95;;;1.85;;
33814;SDS011;20121;51.910;8.406;2022-10-16T06:36:43;1.50;;;1.20;;
33814;SDS011;20121;51.910;8.406;2022-10-16T06:39:09;1.50;;;1.20;;
33814;SDS011;20121;51.910;8.406;2022-10-16T06:41:34;1.17;;;1.13;;
33814;SDS011;20121;51.910;8.406;2022-10-16T06:44:00;0.70;;;0.70;;
33814;SDS011;20121;51.910;8.406;2022-10-16T06:46:29;1.25;;;1.15;;
33814;SDS011;20121;51.910;8.406;2022-10-16T06:48:55;2.23;;;1.40;;
33814;SDS011;20121;51.910;8.406;2022-10-16T06:51:22;0.60;;;0.60;;
33814;SDS011;20121;51.910;8.406;2022-10-16T06:53:49;1.88;;;1.08;;
33814;SDS011;20121;51.910;8.406;2022-10-16T06:56:22;1.15;;;0.93;;
33814;SDS011;20121;51.910;8.406;2022-10-16T06:58:50;1.13;;;0.93;;
33814;SDS011;20121;51.910;8.406;2022-10-16T07:01:18;1.35;;;1.05;;
33814;SDS011;20121;51.910;8.406;2022-10-16T07:03:45;2.75;;;1.35;;
33814;SDS011;20121;51.910;8.406;2022-10-16T07:06:13;1.42;;;1.05;;
33814;SDS011;20121;51.910;8.406;2022-10-16T07:08:41;0.80;;;0.80;;
33814;SDS011;20121;51.910;8.406;2022-10-16T07:11:15;1.63;;;1.00;;
33814;SDS011;20121;51.910;8.406;2022-10-16T07:13:42;1.27;;;1.20;;
33814;SDS011;20121;51.910;8.406;2022-10-16T07:18:39;0.90;;;0.90;;
33814;SDS011;20121;51.910;8.406;2022-10-16T07:21:09;1.05;;;0.85;;
33814;SDS011;20121;51.910;8.406;2022-10-16T07:23:39;2.35;;;1.15;;
33814;SDS011;20121;51.910;8.406;2022-10-16T07:26:06;0.90;;;0.80;;
33814;SDS011;20121;51.910;8.406;2022-10-16T07:28:32;0.90;;;0.80;;
33814;SDS011;20121;51.910;8.406;2022-10-16T07:31:02;1.13;;;1.02;;
33814;SDS011;20121;51.910;8.406;2022-10-16T07:33:29;1.52;;;0.88;;
33814;SDS011;20121;51.910;8.406;2022-10-16T07:35:55;1.95;;;1.35;;
33814;SDS011;20121;51.910;8.406;2022-10-16T07:38:21;0.80;;;0.80;;
33814;SDS011;20121;51.910;8.406;2022-10-16T07:40:47;1.00;;;0.90;;
33814;SDS011;20121;51.910;8.406;2022-10-16T07:43:13;2.65;;;0.90;;
33814;SDS011;20121;51.910;8.406;2022-10-16T07:45:46;1.50;;;1.30;;
33814;SDS011;20121;51.910;8.406;2022-10-16T07:48:14;1.17;;;1.08;;
33814;SDS011;20121;51.910;8.406;2022-10-16T07:50:40;1.10;;;0.98;;
33814;SDS011;20121;51.910;8.406;2022-10-16T07:53:06;0.77;;;0.70;;
33814;SDS011;20121;51.910;8.406;2022-10-16T07:55:32;1.42;;;1.02;;
33814;SDS011;20121;51.910;8.406;2022-10-16T07:57:57;1.37;;;1.27;;
33814;SDS011;20121;51.910;8.406;2022-10-16T08:00:23;0.80;;;0.80;;
33814;SDS011;20121;51.910;8.406;2022-10-16T08:02:49;0.70;;;0.70;;
33814;SDS011;20121;51.910;8.406;2022-10-16T08:05:14;0.90;;;0.90;;
33814;SDS011;20121;51.910;8.406;2022-10-16T08:07:40;1.67;;;0.97;;
33814;SDS011;20121;51.910;8.406;2022-10-16T08:10:06;5.03;;;1.07;;
33814;SDS011;20121;51.910;8.406;2022-10-16T08:12:34;1.65;;;1.55;;
33814;SDS011;20121;51.910;8.406;2022-10-16T08:15:00;1.23;;;1.13;;
33814;SDS011;20121;51.910;8.406;2022-10-16T08:17:26;0.93;;;0.90;;
33814;SDS011;20121;51.910;8.406;2022-10-16T08:19:51;0.97;;;0.97;;
33814;SDS011;20121;51.910;8.406;2022-10-16T08:22:17;0.97;;;0.90;;
33814;SDS011;20121;51.910;8.406;2022-10-16T08:24:42;1.20;;;1.10;;
33814;SDS011;20121;51.910;8.406;2022-10-16T08:27:08;0.97;;;0.87;;
33814;SDS011;20121;51.910;8.406;2022-10-16T08:29:34;1.30;;;1.10;;
33814;SDS011;20121;51.910;8.406;2022-10-16T08:31:59;0.70;;;0.70;;
33814;SDS011;20121;51.910;8.406;2022-10-16T08:34:25;0.80;;;0.80;;
33814;SDS011;20121;51.910;8.406;2022-10-16T08:36:52;5.43;;;0.80;;
33814;SDS011;20121;51.910;8.406;2022-10-16T08:39:19;7.13;;;0.90;;
33814;SDS011;20121;51.910;8.406;2022-10-16T08:44:53;1.23;;;1.13;;
33814;SDS011;20121;51.910;8.406;2022-10-16T08:47:33;1.23;;;0.82;;
33814;SDS011;20121;51.910;8.406;2022-10-16T08:50:09;0.80;;;0.80;;
33814;SDS011;20121;51.910;8.406;2022-10-16T08:52:43;0.82;;;0.80;;
33814;SDS011;20121;51.910;8.406;2022-10-16T08:55:31;0.80;;;0.70;;
33814;SDS011;20121;51.910;8.406;2022-10-16T08:58:10;1.10;;;0.75;;
33814;SDS011;20121;51.910;8.406;2022-10-16T09:00:41;0.70;;;0.60;;
33814;SDS011;20121;51.910;8.406;2022-10-16T09:14:50;0.70;;;0.70;;
33814;SDS011;20121;51.910;8.406;2022-10-16T09:17:54;1.08;;;0.80;;
33814;SDS011;20121;51.910;8.406;2022-10-16T09:23:18;1.20;;;0.70;;
33814;SDS011;20121;51.910;8.406;2022-10-16T09:25:50;0.73;;;0.70;;
33814;SDS011;20121;51.910;8.406;2022-10-16T09:28:16;2.10;;;0.70;;
33814;SDS011;20121;51.910;8.406;2022-10-16T09:30:43;6.55;;;1.10;;
33814;SDS011;20121;51.910;8.406;2022-10-16T09:33:10;0.70;;;0.63;;
33814;SDS011;20121;51.910;8.406;2022-10-16T09:35:42;1.15;;;0.85;;
33814;SDS011;20121;51.910;8.406;2022-10-16T09:38:23;1.13;;;0.73;;
33814;SDS011;20121;51.910;8.406;2022-10-16T09:40:53;0.70;;;0.60;;
33814;SDS011;20121;51.910;8.406;2022-10-16T09:46:06;0.90;;;0.90;;
33814;SDS011;20121;51.910;8.406;2022-10-16T09:51:00;1.40;;;1.00;;
33814;SDS011;20121;51.910;8.406;2022-10-16T09:53:41;0.70;;;0.60;;
33814;SDS011;20121;51.910;8.406;2022-10-16T09:56:20;1.27;;;0.70;;
33814;SDS011;20121;51.910;8.406;2022-10-16T09:58:58;0.73;;;0.60;;
33814;SDS011;20121;51.910;8.406;2022-10-16T10:04:24;1.05;;;0.95;;
33814;SDS011;20121;51.910;8.406;2022-10-16T10:06:57;0.82;;;0.70;;
33814;SDS011;20121;51.910;8.406;2022-10-16T10:12:00;2.35;;;0.60;;
33814;SDS011;20121;51.910;8.406;2022-10-16T10:19:46;0.70;;;0.60;;
33814;SDS011;20121;51.910;8.406;2022-10-16T10:30:37;1.00;;;0.90;;
33814;SDS011;20121;51.910;8.406;2022-10-16T10:50:34;0.70;;;0.50;;
33814;SDS011;20121;51.910;8.406;2022-10-16T10:55:36;1.85;;;0.70;;
33814;SDS011;20121;51.910;8.406;2022-10-16T11:04:15;0.75;;;0.57;;
33814;SDS011;20121;51.910;8.406;2022-10-16T11:06:46;0.80;;;0.80;;
33814;SDS011;20121;51.910;8.406;2022-10-16T11:09:18;1.80;;;1.10;;
33814;SDS011;20121;51.910;8.406;2022-10-16T11:17:12;2.17;;;0.70;;
33814;SDS011;20121;51.910;8.406;2022-10-16T11:20:26;0.90;;;0.70;;
33814;SDS011;20121;51.910;8.406;2022-10-16T11:27:50;0.68;;;0.65;;
33814;SDS011;20121;51.910;8.406;2022-10-16T11:30:52;0.70;;;0.70;;
33814;SDS011;20121;51.910;8.406;2022-10-16T11:33:43;1.00;;;0.75;;
33814;SDS011;20121;51.910;8.406;2022-10-16T11:36:18;0.70;;;0.70;;
33814;SDS011;20121;51.910;8.406;2022-10-16T11:50:48;0.70;;;0.63;;
33814;SDS011;20121;51.910;8.406;2022-10-16T11:52:55;0.70;;;0.68;;
33814;SDS011;20121;51.910;8.406;2022-10-16T11:55:35;1.30;;;0.88;;
33814;SDS011;20121;51.910;8.406;2022-10-16T11:58:39;0.70;;;0.60;;
33814;SDS011;20121;51.910;8.406;2022-10-16T12:01:18;0.90;;;0.70;;
33814;SDS011;20121;51.910;8.406;2022-10-16T12:09:20;2.35;;;1.02;;
33814;SDS011;20121;51.910;8.406;2022-10-16T12:11:47;0.77;;;0.70;;
33814;SDS011;20121;51.910;8.406;2022-10-16T12:16:59;0.80;;;0.67;;
33814;SDS011;20121;51.910;8.406;2022-10-16T12:19:26;0.90;;;0.60;;
33814;SDS011;20121;51.910;8.406;2022-10-16T12:21:57;0.80;;;0.80;;
33814;SDS011;20121;51.910;8.406;2022-10-16T12:24:41;0.80;;;0.80;;
33814;SDS011;20121;51.910;8.406;2022-10-16T12:27:22;2.45;;;0.95;;
33814;SDS011;20121;51.910;8.406;2022-10-16T12:29:58;0.70;;;0.70;;
33814;SDS011;20121;51.910;8.406;2022-10-16T12:34:57;2.15;;;0.70;;
33814;SDS011;20121;51.910;8.406;2022-10-16T12:37:25;2.80;;;1.00;;
33814;SDS011;20121;51.910;8.406;2022-10-16T12:40:15;1.35;;;1.00;;
33814;SDS011;20121;51.910;8.406;2022-10-16T12:42:50;0.93;;;0.82;;
33814;SDS011;20121;51.910;8.406;2022-10-16T12:45:29;1.13;;;0.87;;
33814;SDS011;20121;51.910;8.406;2022-10-16T12:47:57;1.70;;;0.85;;
33814;SDS011;20121;51.910;8.406;2022-10-16T12:50:25;0.80;;;0.80;;
33814;SDS011;20121;51.910;8.406;2022-10-16T12:52:57;1.70;;;1.60;;
33814;SDS011;20121;51.910;8.406;2022-10-16T12:55:23;1.23;;;0.70;;
33814;SDS011;20121;51.910;8.406;2022-10-16T13:00:41;2.78;;;0.80;;
33814;SDS011;20121;51.910;8.406;2022-10-16T13:03:30;1.02;;;0.75;;
33814;SDS011;20121;51.910;8.406;2022-10-16T13:10:20;1.75;;;0.85;;
33814;SDS011;20121;51.910;8.406;2022-10-16T13:15:43;0.98;;;0.70;;
33814;SDS011;20121;51.910;8.406;2022-10-16T13:18:19;2.35;;;0.90;;
33814;SDS011;20121;51.910;8.406;2022-10-16T13:28:37;0.80;;;0.70;;
33814;SDS011;20121;51.910;8.406;2022-10-16T13:31:03;1.02;;;0.68;;
33814;SDS011;20121;51.910;8.406;2022-10-16T13:33:36;0.70;;;0.60;;
33814;SDS011;20121;51.910;8.406;2022-10-16T13:36:05;1.65;;;0.90;;
33814;SDS011;20121;51.910;8.406;2022-10-16T13:38:32;0.90;;;0.90;;
33814;SDS011;20121;51.910;8.406;2022-10-16T13:41:20;0.90;;;0.80;;
33814;SDS011;20121;51.910;8.406;2022-10-16T13:43:46;0.80;;;0.80;;
33814;SDS011;20121;51.910;8.406;2022-10-16T13:46:16;0.70;;;0.60;;
33814;SDS011;20121;51.910;8.406;2022-10-16T13:48:59;0.70;;;0.70;;
33814;SDS011;20121;51.910;8.406;2022-10-16T13:51:26;1.20;;;1.10;;
33814;SDS011;20121;51.910;8.406;2022-10-16T13:53:54;0.90;;;0.75;;
33814;SDS011;20121;51.910;8.406;2022-10-16T13:56:21;0.88;;;0.88;;
33814;SDS011;20121;51.910;8.406;2022-10-16T13:59:03;3.17;;;1.00;;
33814;SDS011;20121;51.910;8.406;2022-10-16T14:01:33;1.75;;;1.10;;
33814;SDS011;20121;51.910;8.406;2022-10-16T14:04:05;1.38;;;0.70;;
33814;SDS011;20121;51.910;8.406;2022-10-16T14:06:33;1.17;;;0.75;;
33814;SDS011;20121;51.910;8.406;2022-10-16T14:09:05;0.80;;;0.80;;
33814;SDS011;20121;51.910;8.406;2022-10-16T14:12:12;1.77;;;0.80;;
33814;SDS011;20121;51.910;8.406;2022-10-16T14:14:41;0.65;;;0.60;;
33814;SDS011;20121;51.910;8.406;2022-10-16T14:17:15;0.70;;;0.60;;
33814;SDS011;20121;51.910;8.406;2022-10-16T14:19:58;5.88;;;0.80;;
33814;SDS011;20121;51.910;8.406;2022-10-16T14:25:02;0.70;;;0.63;;
33814;SDS011;20121;51.910;8.406;2022-10-16T14:30:28;0.60;;;0.50;;
33814;SDS011;20121;51.910;8.406;2022-10-16T14:33:01;1.15;;;0.70;;
33814;SDS011;20121;51.910;8.406;2022-10-16T14:35:44;1.08;;;0.70;;
33814;SDS011;20121;51.910;8.406;2022-10-16T14:38:16;1.00;;;0.70;;
33814;SDS011;20121;51.910;8.406;2022-10-16T14:40:46;0.70;;;0.60;;
33814;SDS011;20121;51.910;8.406;2022-10-16T14:43:14;2.97;;;0.80;;
33814;SDS011;20121;51.910;8.406;2022-10-16T14:45:50;0.70;;;0.60;;
33814;SDS011;20121;51.910;8.406;2022-10-16T14:48:18;3.10;;;0.63;;
33814;SDS011;20121;51.910;8.406;2022-10-16T14:50:46;0.90;;;0.70;;
33814;SDS011;20121;51.910;8.406;2022-10-16T14:53:11;1.75;;;0.82;;
33814;SDS011;20121;51.910;8.406;2022-10-16T14:55:38;0.70;;;0.60;;
33814;SDS011;20121;51.910;8.406;2022-10-16T14:58:05;0.80;;;0.80;;
33814;SDS011;20121;51.910;8.406;2022-10-16T15:00:34;1.83;;;0.63;;
33814;SDS011;20121;51.910;8.406;2022-10-16T15:03:00;0.70;;;0.60;;
33814;SDS011;20121;51.910;8.406;2022-10-16T15:05:26;0.70;;;0.60;;
33814;SDS011;20121;51.910;8.406;2022-10-16T15:07:53;6.15;;;0.90;;
33814;SDS011;20121;51.910;8.406;2022-10-16T15:10:20;0.85;;;0.82;;
33814;SDS011;20121;51.910;8.406;2022-10-16T15:12:48;4.20;;;0.70;;
33814;SDS011;20121;51.910;8.406;2022-10-16T15:15:23;4.20;;;1.00;;
33814;SDS011;20121;51.910;8.406;2022-10-16T15:17:53;2.97;;;0.70;;
33814;SDS011;20121;51.910;8.406;2022-10-16T15:20:26;0.60;;;0.60;;
33814;SDS011;20121;51.910;8.406;2022-10-16T15:22:52;0.68;;;0.60;;
33814;SDS011;20121;51.910;8.406;2022-10-16T15:28:07;0.68;;;0.60;;
33814;SDS011;20121;51.910;8.406;2022-10-16T15:30:34;0.70;;;0.68;;
33814;SDS011;20121;51.910;8.406;2022-10-16T15:33:01;3.58;;;0.73;;
33814;SDS011;20121;51.910;8.406;2022-10-16T15:35:27;0.70;;;0.60;;
33814;SDS011;20121;51.910;8.406;2022-10-16T15:37:53;3.20;;;0.70;;
33814;SDS011;20121;51.910;8.406;2022-10-16T15:40:19;0.80;;;0.67;;
33814;SDS011;20121;51.910;8.406;2022-10-16T15:42:45;0.70;;;0.70;;
33814;SDS011;20121;51.910;8.406;2022-10-16T15:45:11;0.80;;;0.70;;
33814;SDS011;20121;51.910;8.406;2022-10-16T15:47:38;1.08;;;0.70;;
33814;SDS011;20121;51.910;8.406;2022-10-16T15:50:05;0.60;;;0.50;;
33814;SDS011;20121;51.910;8.406;2022-10-16T15:52:32;0.95;;;0.85;;
33814;SDS011;20121;51.910;8.406;2022-10-16T15:54:58;4.30;;;1.20;;
33814;SDS011;20121;51.910;8.406;2022-10-16T15:57:24;0.70;;;0.60;;
33814;SDS011;20121;51.910;8.406;2022-10-16T15:59:49;0.70;;;0.60;;
33814;SDS011;20121;51.910;8.406;2022-10-16T16:02:15;1.10;;;0.80;;
33814;SDS011;20121;51.910;8.406;2022-10-16T16:04:41;2.10;;;1.27;;
33814;SDS011;20121;51.910;8.406;2022-10-16T16:07:07;0.90;;;0.63;;
33814;SDS011;20121;51.910;8.406;2022-10-16T16:09:32;1.23;;;0.73;;
33814;SDS011;20121;51.910;8.406;2022-10-16T16:11:58;2.90;;;0.80;;
33814;SDS011;20121;51.910;8.406;2022-10-16T16:14:26;0.60;;;0.60;;
33814;SDS011;20121;51.910;8.406;2022-10-16T16:16:55;1.05;;;0.80;;
33814;SDS011;20121;51.910;8.406;2022-10-16T16:19:21;0.93;;;0.85;;
33814;SDS011;20121;51.910;8.406;2022-10-16T16:21:47;1.17;;;0.70;;
33814;SDS011;20121;51.910;8.406;2022-10-16T16:24:13;1.17;;;0.80;;
33814;SDS011;20121;51.910;8.406;2022-10-16T16:26:39;0.87;;;0.73;;
33814;SDS011;20121;51.910;8.406;2022-10-16T16:29:08;2.15;;;1.25;;
33814;SDS011;20121;51.910;8.406;2022-10-16T16:31:40;1.48;;;0.90;;
33814;SDS011;20121;51.910;8.406;2022-10-16T16:34:06;3.45;;;1.02;;
33814;SDS011;20121;51.910;8.406;2022-10-16T16:36:33;2.30;;;0.77;;
33814;SDS011;20121;51.910;8.406;2022-10-16T16:38:59;1.00;;;0.80;;
33814;SDS011;20121;51.910;8.406;2022-10-16T16:41:26;0.90;;;0.70;;
33814;SDS011;20121;51.910;8.406;2022-10-16T16:43:53;1.77;;;0.90;;
33814;SDS011;20121;51.910;8.406;2022-10-16T16:46:19;1.00;;;0.95;;
33814;SDS011;20121;51.910;8.406;2022-10-16T16:48:46;1.10;;;0.80;;
33814;SDS011;20121;51.910;8.406;2022-10-16T16:51:13;2.10;;;1.13;;
33814;SDS011;20121;51.910;8.406;2022-10-16T16:53:45;1.13;;;1.02;;
33814;SDS011;20121;51.910;8.406;2022-10-16T16:56:12;2.40;;;1.10;;
33814;SDS011;20121;51.910;8.406;2022-10-16T16:58:39;0.80;;;0.80;;
33814;SDS011;20121;51.910;8.406;2022-10-16T17:01:04;0.90;;;0.90;;
33814;SDS011;20121;51.910;8.406;2022-10-16T17:03:32;1.55;;;0.80;;
33814;SDS011;20121;51.910;8.406;2022-10-16T17:06:00;0.70;;;0.70;;
33814;SDS011;20121;51.910;8.406;2022-10-16T17:08:31;3.25;;;0.80;;
33814;SDS011;20121;51.910;8.406;2022-10-16T17:10:57;1.58;;;1.10;;
33814;SDS011;20121;51.910;8.406;2022-10-16T17:13:24;4.97;;;1.38;;
33814;SDS011;20121;51.910;8.406;2022-10-16T17:15:51;3.70;;;2.03;;
33814;SDS011;20121;51.910;8.406;2022-10-16T17:18:18;4.72;;;2.05;;
33814;SDS011;20121;51.910;8.406;2022-10-16T17:20:45;2.05;;;1.85;;